Terminal Aerodrome Forecast
Issued by NWS

Home | Current Version | Previous Version | Text Only | Print | Product List | Glossary On
Versions: 1 2 3 4 5 6 7 8 9 10 11 12 13
817
FTUS43 KABR 200529
TAFMBG
TAF
KMBG 200529Z 2006/2106 36005KT 1/4SM FZFG VV002
     FM201400 12004KT 1/2SM FG BKN003
     FM201900 14004KT 6SM BR SCT006
     FM202100 15004KT P6SM SKC
     FM210200 16005KT P6SM OVC003=

USA.gov is the U.S. government's official web portal to all federal, state and local government web resources and services.